sensor_id;sensor_type;location;lat;lon;timestamp;pressure;altitude;pressure_sealevel;temperature;humidity
21817;BME280;13247;47.504;7.382;2023-07-31T00:02:21;97471.75;;;16.66;100.00
21817;BME280;13247;47.504;7.382;2023-07-31T00:05:06;97475.22;;;16.99;100.00
21817;BME280;13247;47.504;7.382;2023-07-31T00:07:50;97476.50;;;16.59;100.00
21817;BME280;13247;47.504;7.382;2023-07-31T00:10:35;97482.75;;;16.91;100.00
21817;BME280;13247;47.504;7.382;2023-07-31T00:13:20;97486.84;;;16.96;100.00
21817;BME280;13247;47.504;7.382;2023-07-31T00:16:05;97485.28;;;16.92;100.00
21817;BME280;13247;47.504;7.382;2023-07-31T00:18:50;97481.78;;;16.76;100.00
21817;BME280;13247;47.504;7.382;2023-07-31T00:21:34;97474.69;;;16.77;100.00
21817;BME280;13247;47.504;7.382;2023-07-31T00:24:19;97480.88;;;16.43;100.00
21817;BME280;13247;47.504;7.382;2023-07-31T00:27:05;97487.19;;;16.40;100.00
21817;BME280;13247;47.504;7.382;2023-07-31T00:29:49;97484.38;;;16.43;100.00
21817;BME280;13247;47.504;7.382;2023-07-31T00:32:34;97475.75;;;16.23;100.00
21817;BME280;13247;47.504;7.382;2023-07-31T00:35:19;97472.22;;;15.88;100.00
21817;BME280;13247;47.504;7.382;2023-07-31T00:38:03;97478.03;;;15.96;100.00
21817;BME280;13247;47.504;7.382;2023-07-31T00:40:48;97482.13;;;16.02;100.00
21817;BME280;13247;47.504;7.382;2023-07-31T00:43:32;97477.38;;;16.08;100.00
21817;BME280;13247;47.504;7.382;2023-07-31T00:46:17;97481.97;;;15.88;100.00
21817;BME280;13247;47.504;7.382;2023-07-31T00:49:02;97473.81;;;15.92;100.00
21817;BME280;13247;47.504;7.382;2023-07-31T00:51:48;97472.22;;;15.88;100.00
21817;BME280;13247;47.504;7.382;2023-07-31T00:54:33;97468.28;;;15.80;100.00
21817;BME280;13247;47.504;7.382;2023-07-31T00:57:18;97466.50;;;15.97;100.00
21817;BME280;13247;47.504;7.382;2023-07-31T01:00:03;97464.84;;;15.95;100.00
21817;BME280;13247;47.504;7.382;2023-07-31T01:02:49;97458.22;;;15.86;100.00
21817;BME280;13247;47.504;7.382;2023-07-31T01:08:58;97455.13;;;15.78;100.00
21817;BME280;13247;47.504;7.382;2023-07-31T01:11:56;97447.47;;;15.55;100.00
21817;BME280;13247;47.504;7.382;2023-07-31T01:14:50;97446.00;;;15.31;100.00
21817;BME280;13247;47.504;7.382;2023-07-31T01:17:38;97444.88;;;15.18;100.00
21817;BME280;13247;47.504;7.382;2023-07-31T01:20:25;97440.22;;;15.23;100.00
21817;BME280;13247;47.504;7.382;2023-07-31T01:23:40;97444.22;;;15.50;100.00
21817;BME280;13247;47.504;7.382;2023-07-31T01:26:34;97448.50;;;15.34;100.00
21817;BME280;13247;47.504;7.382;2023-07-31T01:29:47;97447.09;;;15.45;100.00
21817;BME280;13247;47.504;7.382;2023-07-31T01:32:29;97442.34;;;15.52;100.00
21817;BME280;13247;47.504;7.382;2023-07-31T01:35:14;97450.13;;;15.55;100.00
21817;BME280;13247;47.504;7.382;2023-07-31T01:37:59;97453.78;;;15.34;100.00
21817;BME280;13247;47.504;7.382;2023-07-31T01:40:43;97444.75;;;15.38;100.00
21817;BME280;13247;47.504;7.382;2023-07-31T01:43:28;97436.00;;;15.56;100.00
21817;BME280;13247;47.504;7.382;2023-07-31T01:46:13;97430.31;;;15.63;100.00
21817;BME280;13247;47.504;7.382;2023-07-31T01:48:57;97433.03;;;15.62;100.00
21817;BME280;13247;47.504;7.382;2023-07-31T01:51:42;97422.22;;;15.49;100.00
21817;BME280;13247;47.504;7.382;2023-07-31T01:54:26;97429.13;;;15.52;100.00
21817;BME280;13247;47.504;7.382;2023-07-31T01:57:11;97421.59;;;15.26;100.00
21817;BME280;13247;47.504;7.382;2023-07-31T01:59:55;97413.06;;;15.38;100.00
21817;BME280;13247;47.504;7.382;2023-07-31T02:02:40;97415.13;;;15.31;100.00
21817;BME280;13247;47.504;7.382;2023-07-31T02:05:24;97411.84;;;15.09;100.00
21817;BME280;13247;47.504;7.382;2023-07-31T02:08:09;97410.44;;;14.83;100.00
21817;BME280;13247;47.504;7.382;2023-07-31T02:10:54;97405.13;;;15.02;100.00
21817;BME280;13247;47.504;7.382;2023-07-31T02:13:39;97404.25;;;15.02;100.00
21817;BME280;13247;47.504;7.382;2023-07-31T02:16:23;97397.50;;;14.96;100.00
21817;BME280;13247;47.504;7.382;2023-07-31T02:19:08;97397.69;;;15.10;100.00
21817;BME280;13247;47.504;7.382;2023-07-31T02:21:52;97389.00;;;14.89;100.00
21817;BME280;13247;47.504;7.382;2023-07-31T02:24:37;97388.59;;;14.99;100.00
21817;BME280;13247;47.504;7.382;2023-07-31T02:27:21;97385.72;;;15.03;100.00
21817;BME280;13247;47.504;7.382;2023-07-31T02:30:09;97381.06;;;15.08;100.00
21817;BME280;13247;47.504;7.382;2023-07-31T02:32:54;97381.94;;;14.90;100.00
21817;BME280;13247;47.504;7.382;2023-07-31T02:35:38;97384.47;;;14.93;100.00
21817;BME280;13247;47.504;7.382;2023-07-31T02:38:23;97381.13;;;15.07;100.00
21817;BME280;13247;47.504;7.382;2023-07-31T02:41:08;97381.09;;;14.89;100.00
21817;BME280;13247;47.504;7.382;2023-07-31T02:43:52;97382.69;;;15.11;100.00
21817;BME280;13247;47.504;7.382;2023-07-31T02:46:37;97383.38;;;14.78;100.00
21817;BME280;13247;47.504;7.382;2023-07-31T02:49:21;97395.03;;;14.93;100.00
21817;BME280;13247;47.504;7.382;2023-07-31T02:52:06;97392.25;;;15.13;100.00
21817;BME280;13247;47.504;7.382;2023-07-31T02:54:50;97393.22;;;14.93;100.00
21817;BME280;13247;47.504;7.382;2023-07-31T02:57:35;97395.28;;;14.87;100.00
21817;BME280;13247;47.504;7.382;2023-07-31T03:00:19;97395.50;;;15.01;100.00
21817;BME280;13247;47.504;7.382;2023-07-31T03:03:04;97395.41;;;15.03;100.00
21817;BME280;13247;47.504;7.382;2023-07-31T03:05:48;97395.00;;;14.74;100.00
21817;BME280;13247;47.504;7.382;2023-07-31T03:08:33;97397.41;;;14.98;100.00
21817;BME280;13247;47.504;7.382;2023-07-31T03:11:18;97399.53;;;15.08;100.00
21817;BME280;13247;47.504;7.382;2023-07-31T03:14:02;97401.53;;;15.22;100.00
21817;BME280;13247;47.504;7.382;2023-07-31T03:16:47;97402.69;;;14.98;100.00
21817;BME280;13247;47.504;7.382;2023-07-31T03:19:32;97406.75;;;15.05;100.00
21817;BME280;13247;47.504;7.382;2023-07-31T03:22:17;97406.56;;;15.09;100.00
21817;BME280;13247;47.504;7.382;2023-07-31T03:25:03;97407.50;;;14.89;100.00
21817;BME280;13247;47.504;7.382;2023-07-31T03:27:47;97402.84;;;15.13;100.00
21817;BME280;13247;47.504;7.382;2023-07-31T03:30:32;97408.41;;;15.07;100.00
21817;BME280;13247;47.504;7.382;2023-07-31T03:33:19;97405.72;;;14.90;100.00
21817;BME280;13247;47.504;7.382;2023-07-31T03:36:05;97396.50;;;14.99;100.00
21817;BME280;13247;47.504;7.382;2023-07-31T03:38:52;97405.47;;;15.13;100.00
21817;BME280;13247;47.504;7.382;2023-07-31T03:41:36;97396.56;;;14.78;100.00
21817;BME280;13247;47.504;7.382;2023-07-31T03:44:21;97401.56;;;15.03;100.00
21817;BME280;13247;47.504;7.382;2023-07-31T03:47:05;97406.78;;;14.86;100.00
21817;BME280;13247;47.504;7.382;2023-07-31T03:49:50;97396.78;;;14.55;100.00
21817;BME280;13247;47.504;7.382;2023-07-31T03:52:35;97396.16;;;14.87;100.00
21817;BME280;13247;47.504;7.382;2023-07-31T03:55:19;97400.06;;;14.98;100.00
21817;BME280;13247;47.504;7.382;2023-07-31T03:58:06;97398.84;;;15.05;100.00
21817;BME280;13247;47.504;7.382;2023-07-31T04:00:50;97401.13;;;14.93;100.00
21817;BME280;13247;47.504;7.382;2023-07-31T04:03:35;97408.44;;;14.88;100.00
21817;BME280;13247;47.504;7.382;2023-07-31T04:06:20;97406.13;;;15.00;100.00
21817;BME280;13247;47.504;7.382;2023-07-31T04:09:04;97408.13;;;14.94;100.00
21817;BME280;13247;47.504;7.382;2023-07-31T04:11:49;97405.00;;;14.86;100.00
21817;BME280;13247;47.504;7.382;2023-07-31T04:14:33;97400.44;;;14.90;100.00
21817;BME280;13247;47.504;7.382;2023-07-31T04:17:18;97401.56;;;15.03;100.00
21817;BME280;13247;47.504;7.382;2023-07-31T04:20:03;97401.34;;;15.08;100.00
21817;BME280;13247;47.504;7.382;2023-07-31T04:22:49;97400.66;;;15.21;100.00
21817;BME280;13247;47.504;7.382;2023-07-31T04:25:34;97388.66;;;15.33;100.00
21817;BME280;13247;47.504;7.382;2023-07-31T04:28:19;97385.13;;;15.15;100.00
21817;BME280;13247;47.504;7.382;2023-07-31T04:31:03;97394.47;;;15.22;100.00
21817;BME280;13247;47.504;7.382;2023-07-31T04:33:48;97405.38;;;15.15;100.00
21817;BME280;13247;47.504;7.382;2023-07-31T04:36:34;97405.88;;;15.23;100.00
21817;BME280;13247;47.504;7.382;2023-07-31T04:39:19;97404.31;;;15.19;100.00
21817;BME280;13247;47.504;7.382;2023-07-31T04:42:04;97402.84;;;14.94;100.00
21817;BME280;13247;47.504;7.382;2023-07-31T04:44:49;97400.41;;;15.09;100.00
21817;BME280;13247;47.504;7.382;2023-07-31T04:47:33;97409.13;;;15.11;100.00
21817;BME280;13247;47.504;7.382;2023-07-31T04:50:18;97408.63;;;15.03;100.00
21817;BME280;13247;47.504;7.382;2023-07-31T04:53:03;97407.72;;;15.04;100.00
21817;BME280;13247;47.504;7.382;2023-07-31T04:55:47;97406.94;;;15.19;100.00
21817;BME280;13247;47.504;7.382;2023-07-31T04:58:32;97399.28;;;15.50;100.00
21817;BME280;13247;47.504;7.382;2023-07-31T05:01:16;97398.44;;;15.66;100.00
21817;BME280;13247;47.504;7.382;2023-07-31T05:04:01;97390.81;;;15.60;100.00
21817;BME280;13247;47.504;7.382;2023-07-31T05:06:45;97400.00;;;15.70;100.00
21817;BME280;13247;47.504;7.382;2023-07-31T05:09:30;97398.19;;;15.88;100.00
21817;BME280;13247;47.504;7.382;2023-07-31T05:12:15;97410.94;;;15.63;100.00
21817;BME280;13247;47.504;7.382;2023-07-31T05:15:00;97410.69;;;15.50;100.00
21817;BME280;13247;47.504;7.382;2023-07-31T05:17:44;97414.50;;;15.45;100.00
21817;BME280;13247;47.504;7.382;2023-07-31T05:20:29;97406.34;;;15.49;100.00
21817;BME280;13247;47.504;7.382;2023-07-31T05:23:13;97399.59;;;15.78;100.00
21817;BME280;13247;47.504;7.382;2023-07-31T05:26:06;97406.91;;;15.73;100.00
21817;BME280;13247;47.504;7.382;2023-07-31T05:28:51;97409.00;;;16.01;100.00
21817;BME280;13247;47.504;7.382;2023-07-31T05:31:35;97414.25;;;16.18;100.00
21817;BME280;13247;47.504;7.382;2023-07-31T05:34:20;97413.19;;;16.22;100.00
21817;BME280;13247;47.504;7.382;2023-07-31T05:37:05;97416.72;;;16.38;100.00
21817;BME280;13247;47.504;7.382;2023-07-31T05:39:50;97411.44;;;16.38;100.00
21817;BME280;13247;47.504;7.382;2023-07-31T05:42:35;97412.84;;;16.45;100.00
21817;BME280;13247;47.504;7.382;2023-07-31T05:45:23;97408.19;;;16.66;100.00
21817;BME280;13247;47.504;7.382;2023-07-31T05:48:08;97406.66;;;16.62;100.00
21817;BME280;13247;47.504;7.382;2023-07-31T05:50:52;97411.13;;;16.92;100.00
21817;BME280;13247;47.504;7.382;2023-07-31T05:53:37;97397.97;;;16.91;100.00
21817;BME280;13247;47.504;7.382;2023-07-31T05:56:25;97391.72;;;16.92;100.00
21817;BME280;13247;47.504;7.382;2023-07-31T05:59:12;97385.22;;;16.82;100.00
21817;BME280;13247;47.504;7.382;2023-07-31T06:01:57;97390.19;;;16.88;100.00
21817;BME280;13247;47.504;7.382;2023-07-31T06:04:42;97393.00;;;17.00;100.00
21817;BME280;13247;47.504;7.382;2023-07-31T06:07:27;97395.13;;;17.09;100.00
21817;BME280;13247;47.504;7.382;2023-07-31T06:10:11;97395.66;;;17.16;100.00
21817;BME280;13247;47.504;7.382;2023-07-31T06:12:56;97396.78;;;17.12;100.00
21817;BME280;13247;47.504;7.382;2023-07-31T06:15:41;97390.75;;;17.24;100.00
21817;BME280;13247;47.504;7.382;2023-07-31T06:18:26;97387.34;;;17.38;100.00
21817;BME280;13247;47.504;7.382;2023-07-31T06:21:11;97385.88;;;17.48;100.00
21817;BME280;13247;47.504;7.382;2023-07-31T06:23:55;97367.97;;;17.67;100.00
21817;BME280;13247;47.504;7.382;2023-07-31T06:26:40;97363.06;;;17.89;100.00
21817;BME280;13247;47.504;7.382;2023-07-31T06:29:24;97370.22;;;17.88;100.00
21817;BME280;13247;47.504;7.382;2023-07-31T06:32:09;97359.63;;;18.31;100.00
21817;BME280;13247;47.504;7.382;2023-07-31T06:34:54;97349.03;;;18.59;100.00
21817;BME280;13247;47.504;7.382;2023-07-31T06:37:39;97350.72;;;18.74;100.00
21817;BME280;13247;47.504;7.382;2023-07-31T06:40:24;97346.38;;;18.59;100.00
21817;BME280;13247;47.504;7.382;2023-07-31T06:43:09;97345.22;;;18.63;100.00
21817;BME280;13247;47.504;7.382;2023-07-31T06:45:53;97347.00;;;18.76;100.00
21817;BME280;13247;47.504;7.382;2023-07-31T06:48:38;97342.28;;;18.67;100.00
21817;BME280;13247;47.504;7.382;2023-07-31T06:51:24;97361.31;;;18.88;100.00
21817;BME280;13247;47.504;7.382;2023-07-31T06:54:09;97361.25;;;19.16;100.00
21817;BME280;13247;47.504;7.382;2023-07-31T06:56:54;97352.56;;;19.53;100.00
21817;BME280;13247;47.504;7.382;2023-07-31T06:59:38;97356.41;;;19.49;100.00
21817;BME280;13247;47.504;7.382;2023-07-31T07:02:23;97349.72;;;19.56;100.00
21817;BME280;13247;47.504;7.382;2023-07-31T07:05:08;97359.91;;;19.77;100.00
21817;BME280;13247;47.504;7.382;2023-07-31T07:07:53;97350.00;;;19.91;100.00
21817;BME280;13247;47.504;7.382;2023-07-31T07:10:37;97349.78;;;19.94;95.35
21817;BME280;13247;47.504;7.382;2023-07-31T07:13:22;97348.53;;;20.12;89.41
21817;BME280;13247;47.504;7.382;2023-07-31T07:16:07;97357.81;;;20.57;98.84
21817;BME280;13247;47.504;7.382;2023-07-31T07:18:52;97360.06;;;20.63;91.18
21817;BME280;13247;47.504;7.382;2023-07-31T07:21:36;97359.72;;;20.55;88.02
21817;BME280;13247;47.504;7.382;2023-07-31T07:24:21;97364.97;;;20.57;83.24
21817;BME280;13247;47.504;7.382;2023-07-31T07:27:06;97361.44;;;20.56;81.53
21817;BME280;13247;47.504;7.382;2023-07-31T07:29:51;97363.47;;;20.53;80.08
21817;BME280;13247;47.504;7.382;2023-07-31T07:32:36;97356.63;;;20.49;80.75
21817;BME280;13247;47.504;7.382;2023-07-31T07:35:21;97354.72;;;20.63;81.81
21817;BME280;13247;47.504;7.382;2023-07-31T07:38:06;97356.44;;;20.52;81.29
21817;BME280;13247;47.504;7.382;2023-07-31T07:40:51;97350.22;;;20.64;77.71
21817;BME280;13247;47.504;7.382;2023-07-31T07:43:38;97344.13;;;20.74;78.78
21817;BME280;13247;47.504;7.382;2023-07-31T07:46:22;97348.06;;;20.81;79.91
21817;BME280;13247;47.504;7.382;2023-07-31T07:49:07;97335.63;;;20.69;79.30
21817;BME280;13247;47.504;7.382;2023-07-31T07:51:52;97327.97;;;20.65;79.85
21817;BME280;13247;47.504;7.382;2023-07-31T07:54:36;97334.22;;;20.76;82.13
21817;BME280;13247;47.504;7.382;2023-07-31T07:57:21;97345.47;;;21.05;81.69
21817;BME280;13247;47.504;7.382;2023-07-31T08:00:06;97334.47;;;21.09;75.23
21817;BME280;13247;47.504;7.382;2023-07-31T08:02:51;97328.97;;;21.24;77.79
21817;BME280;13247;47.504;7.382;2023-07-31T08:05:36;97330.63;;;21.01;76.36
21817;BME280;13247;47.504;7.382;2023-07-31T08:08:21;97342.47;;;21.09;79.62
21817;BME280;13247;47.504;7.382;2023-07-31T08:11:05;97334.81;;;21.05;75.81
21817;BME280;13247;47.504;7.382;2023-07-31T08:13:50;97326.59;;;21.32;74.54
21817;BME280;13247;47.504;7.382;2023-07-31T08:16:35;97338.25;;;21.31;75.29
21817;BME280;13247;47.504;7.382;2023-07-31T08:19:19;97322.66;;;21.48;73.63
21817;BME280;13247;47.504;7.382;2023-07-31T08:22:04;97318.44;;;21.57;74.32
21817;BME280;13247;47.504;7.382;2023-07-31T08:24:48;97321.88;;;21.70;73.09
21817;BME280;13247;47.504;7.382;2023-07-31T08:27:33;97325.97;;;21.63;74.38
21817;BME280;13247;47.504;7.382;2023-07-31T08:30:18;97329.44;;;21.18;74.64
21817;BME280;13247;47.504;7.382;2023-07-31T08:33:03;97327.91;;;21.26;78.38
21817;BME280;13247;47.504;7.382;2023-07-31T08:35:47;97318.84;;;21.40;75.87
21817;BME280;13247;47.504;7.382;2023-07-31T08:38:33;97318.72;;;21.65;74.20
21817;BME280;13247;47.504;7.382;2023-07-31T08:41:17;97312.75;;;21.85;71.71
21817;BME280;13247;47.504;7.382;2023-07-31T08:44:01;97324.59;;;21.81;72.08
21817;BME280;13247;47.504;7.382;2023-07-31T08:46:47;97324.44;;;21.71;72.52
21817;BME280;13247;47.504;7.382;2023-07-31T08:49:33;97320.28;;;21.91;74.18
21817;BME280;13247;47.504;7.382;2023-07-31T08:52:18;97320.53;;;21.99;73.78
21817;BME280;13247;47.504;7.382;2023-07-31T08:55:02;97310.22;;;22.06;71.53
21817;BME280;13247;47.504;7.382;2023-07-31T08:57:47;97305.28;;;21.77;74.75
21817;BME280;13247;47.504;7.382;2023-07-31T09:00:32;97305.97;;;21.92;74.17
21817;BME280;13247;47.504;7.382;2023-07-31T09:03:23;97303.94;;;22.29;74.31
21817;BME280;13247;47.504;7.382;2023-07-31T09:06:09;97300.72;;;22.58;70.20
21817;BME280;13247;47.504;7.382;2023-07-31T09:08:54;97304.56;;;22.43;68.53
21817;BME280;13247;47.504;7.382;2023-07-31T09:11:39;97303.56;;;22.22;65.62
21817;BME280;13247;47.504;7.382;2023-07-31T09:14:25;97301.88;;;22.54;70.12
21817;BME280;13247;47.504;7.382;2023-07-31T09:17:11;97301.38;;;23.05;62.90
21817;BME280;13247;47.504;7.382;2023-07-31T09:19:56;97299.44;;;22.51;64.51
21817;BME280;13247;47.504;7.382;2023-07-31T09:22:42;97293.41;;;22.38;67.94
21817;BME280;13247;47.504;7.382;2023-07-31T09:25:28;97297.00;;;22.26;65.11
21817;BME280;13247;47.504;7.382;2023-07-31T09:28:13;97288.78;;;22.40;66.32
21817;BME280;13247;47.504;7.382;2023-07-31T09:30:57;97287.78;;;22.41;65.52
21817;BME280;13247;47.504;7.382;2023-07-31T09:33:55;97276.88;;;22.55;65.30
21817;BME280;13247;47.504;7.382;2023-07-31T09:36:47;97265.44;;;22.64;69.06
21817;BME280;13247;47.504;7.382;2023-07-31T09:39:32;97262.66;;;22.55;66.73
21817;BME280;13247;47.504;7.382;2023-07-31T09:42:29;97253.94;;;22.96;67.63
21817;BME280;13247;47.504;7.382;2023-07-31T09:45:19;97240.72;;;22.94;65.08
21817;BME280;13247;47.504;7.382;2023-07-31T09:48:12;97240.66;;;22.74;67.39
21817;BME280;13247;47.504;7.382;2023-07-31T09:50:57;97237.66;;;23.42;65.15
21817;BME280;13247;47.504;7.382;2023-07-31T09:53:50;97232.03;;;23.45;63.87
21817;BME280;13247;47.504;7.382;2023-07-31T09:56:36;97228.03;;;23.80;62.26
21817;BME280;13247;47.504;7.382;2023-07-31T09:59:21;97221.06;;;23.48;61.35
21817;BME280;13247;47.504;7.382;2023-07-31T10:02:09;97207.66;;;23.68;63.53
21817;BME280;13247;47.504;7.382;2023-07-31T10:05:02;97216.25;;;23.30;63.76
21817;BME280;13247;47.504;7.382;2023-07-31T10:07:57;97216.75;;;23.77;62.70
21817;BME280;13247;47.504;7.382;2023-07-31T10:10:44;97211.44;;;24.37;61.22
21817;BME280;13247;47.504;7.382;2023-07-31T10:13:29;97207.22;;;24.44;59.93
21817;BME280;13247;47.504;7.382;2023-07-31T10:16:15;97198.56;;;24.71;58.49
21817;BME280;13247;47.504;7.382;2023-07-31T10:19:01;97189.03;;;25.07;57.70
21817;BME280;13247;47.504;7.382;2023-07-31T10:21:48;97200.47;;;24.50;57.49
21817;BME280;13247;47.504;7.382;2023-07-31T10:24:33;97190.41;;;24.33;61.26
21817;BME280;13247;47.504;7.382;2023-07-31T10:27:19;97200.81;;;24.75;57.35
21817;BME280;13247;47.504;7.382;2023-07-31T10:30:05;97192.19;;;24.72;55.02
21817;BME280;13247;47.504;7.382;2023-07-31T10:32:51;97192.97;;;24.93;56.58
21817;BME280;13247;47.504;7.382;2023-07-31T10:35:37;97182.31;;;24.72;55.78
21817;BME280;13247;47.504;7.382;2023-07-31T10:38:24;97179.09;;;25.64;51.97
21817;BME280;13247;47.504;7.382;2023-07-31T10:41:12;97169.22;;;25.27;53.58
21817;BME280;13247;47.504;7.382;2023-07-31T10:44:03;97176.03;;;24.43;55.78
21817;BME280;13247;47.504;7.382;2023-07-31T10:46:55;97174.88;;;24.95;52.83
21817;BME280;13247;47.504;7.382;2023-07-31T10:49:39;97172.56;;;24.71;57.13
21817;BME280;13247;47.504;7.382;2023-07-31T10:52:24;97176.34;;;24.69;55.66
21817;BME280;13247;47.504;7.382;2023-07-31T10:58:10;97162.25;;;24.67;57.36
21817;BME280;13247;47.504;7.382;2023-07-31T11:01:00;97155.41;;;24.44;54.15
21817;BME280;13247;47.504;7.382;2023-07-31T11:03:47;97162.13;;;24.68;55.52
21817;BME280;13247;47.504;7.382;2023-07-31T11:06:33;97144.94;;;24.90;53.33
21817;BME280;13247;47.504;7.382;2023-07-31T11:09:20;97146.66;;;24.81;55.72
21817;BME280;13247;47.504;7.382;2023-07-31T11:12:05;97144.78;;;24.82;55.01
21817;BME280;13247;47.504;7.382;2023-07-31T11:14:57;97149.66;;;24.39;54.34
21817;BME280;13247;47.504;7.382;2023-07-31T11:17:42;97140.38;;;24.62;54.99
21817;BME280;13247;47.504;7.382;2023-07-31T11:20:29;97128.97;;;25.08;52.97
21817;BME280;13247;47.504;7.382;2023-07-31T11:23:17;97127.81;;;24.72;55.54
21817;BME280;13247;47.504;7.382;2023-07-31T11:26:04;97120.34;;;24.75;57.46
21817;BME280;13247;47.504;7.382;2023-07-31T11:28:50;97125.16;;;24.91;55.60
21817;BME280;13247;47.504;7.382;2023-07-31T11:31:42;97120.91;;;25.08;57.86
21817;BME280;13247;47.504;7.382;2023-07-31T11:34:27;97120.34;;;25.23;56.65
21817;BME280;13247;47.504;7.382;2023-07-31T11:37:12;97118.38;;;25.44;55.26
21817;BME280;13247;47.504;7.382;2023-07-31T11:40:02;97105.84;;;25.72;53.07
21817;BME280;13247;47.504;7.382;2023-07-31T11:42:47;97112.56;;;25.86;52.38
21817;BME280;13247;47.504;7.382;2023-07-31T11:45:32;97109.47;;;25.34;52.27
21817;BME280;13247;47.504;7.382;2023-07-31T11:48:26;97100.88;;;24.92;56.41
21817;BME280;13247;47.504;7.382;2023-07-31T11:51:12;97103.94;;;25.36;54.46
21817;BME280;13247;47.504;7.382;2023-07-31T11:54:01;97092.09;;;25.85;53.82
21817;BME280;13247;47.504;7.382;2023-07-31T11:56:47;97094.09;;;25.73;51.14
21817;BME280;13247;47.504;7.382;2023-07-31T11:59:32;97085.31;;;25.25;53.36
21817;BME280;13247;47.504;7.382;2023-07-31T12:02:18;97084.34;;;25.72;53.85
21817;BME280;13247;47.504;7.382;2023-07-31T12:05:03;97079.09;;;25.80;54.05
21817;BME280;13247;47.504;7.382;2023-07-31T12:07:50;97083.44;;;25.91;52.52
21817;BME280;13247;47.504;7.382;2023-07-31T12:10:36;97073.13;;;25.86;52.55
21817;BME280;13247;47.504;7.382;2023-07-31T12:13:25;97058.34;;;26.27;51.91
21817;BME280;13247;47.504;7.382;2023-07-31T12:16:11;97061.00;;;25.73;51.98
21817;BME280;13247;47.504;7.382;2023-07-31T12:18:55;97054.94;;;25.70;54.49
21817;BME280;13247;47.504;7.382;2023-07-31T12:21:40;97053.97;;;25.99;52.89
21817;BME280;13247;47.504;7.382;2023-07-31T12:24:25;97048.00;;;26.85;49.37
21817;BME280;13247;47.504;7.382;2023-07-31T12:27:14;97048.66;;;26.34;48.59
21817;BME280;13247;47.504;7.382;2023-07-31T12:29:59;97037.94;;;26.69;49.12
21817;BME280;13247;47.504;7.382;2023-07-31T12:32:44;97043.28;;;27.22;47.55
21817;BME280;13247;47.504;7.382;2023-07-31T12:35:40;97039.97;;;27.54;46.75
21817;BME280;13247;47.504;7.382;2023-07-31T12:38:25;97037.84;;;27.40;46.87
21817;BME280;13247;47.504;7.382;2023-07-31T12:41:10;97030.50;;;26.63;49.54
21817;BME280;13247;47.504;7.382;2023-07-31T12:43:55;97025.09;;;26.81;49.15
21817;BME280;13247;47.504;7.382;2023-07-31T12:46:40;97024.84;;;27.35;46.38
21817;BME280;13247;47.504;7.382;2023-07-31T12:49:25;97025.69;;;27.36;46.98
21817;BME280;13247;47.504;7.382;2023-07-31T12:52:09;97023.25;;;27.24;47.01
21817;BME280;13247;47.504;7.382;2023-07-31T12:54:54;97017.41;;;26.86;48.33
21817;BME280;13247;47.504;7.382;2023-07-31T12:57:39;97001.78;;;26.72;48.42
21817;BME280;13247;47.504;7.382;2023-07-31T13:00:24;97009.34;;;26.86;46.48
21817;BME280;13247;47.504;7.382;2023-07-31T13:03:10;97019.88;;;26.44;47.14
21817;BME280;13247;47.504;7.382;2023-07-31T13:05:55;97006.94;;;27.00;45.95
21817;BME280;13247;47.504;7.382;2023-07-31T13:08:40;97001.75;;;27.07;48.46
21817;BME280;13247;47.504;7.382;2023-07-31T13:11:24;96999.50;;;27.46;45.44
21817;BME280;13247;47.504;7.382;2023-07-31T13:14:09;97000.22;;;27.30;44.91
21817;BME280;13247;47.504;7.382;2023-07-31T13:16:53;96987.25;;;27.51;49.16
21817;BME280;13247;47.504;7.382;2023-07-31T13:19:38;96988.19;;;27.16;46.25
21817;BME280;13247;47.504;7.382;2023-07-31T13:22:23;96989.16;;;27.07;45.90
21817;BME280;13247;47.504;7.382;2023-07-31T13:25:08;96992.88;;;26.71;47.48
21817;BME280;13247;47.504;7.382;2023-07-31T13:27:53;96979.91;;;26.84;48.14
21817;BME280;13247;47.504;7.382;2023-07-31T13:30:37;96979.84;;;26.41;47.81
21817;BME280;13247;47.504;7.382;2023-07-31T13:33:22;96981.81;;;26.74;48.17
21817;BME280;13247;47.504;7.382;2023-07-31T13:36:07;96984.41;;;26.66;49.17
21817;BME280;13247;47.504;7.382;2023-07-31T13:38:51;96982.44;;;26.51;51.60
21817;BME280;13247;47.504;7.382;2023-07-31T13:41:36;96982.84;;;27.24;49.44
21817;BME280;13247;47.504;7.382;2023-07-31T13:44:20;96978.34;;;26.64;49.75
21817;BME280;13247;47.504;7.382;2023-07-31T13:47:05;96967.78;;;27.14;48.39
21817;BME280;13247;47.504;7.382;2023-07-31T13:49:50;96963.22;;;26.63;48.24
21817;BME280;13247;47.504;7.382;2023-07-31T13:52:35;96967.22;;;26.77;47.60
21817;BME280;13247;47.504;7.382;2023-07-31T13:55:19;96961.41;;;26.72;48.49
21817;BME280;13247;47.504;7.382;2023-07-31T13:58:04;96962.84;;;27.01;50.78
21817;BME280;13247;47.504;7.382;2023-07-31T14:00:49;96947.59;;;27.36;49.88
21817;BME280;13247;47.504;7.382;2023-07-31T14:03:34;96956.59;;;27.27;51.25
21817;BME280;13247;47.504;7.382;2023-07-31T14:06:19;96954.53;;;27.20;50.46
21817;BME280;13247;47.504;7.382;2023-07-31T14:09:05;96950.50;;;26.91;50.38
21817;BME280;13247;47.504;7.382;2023-07-31T14:11:50;96937.91;;;27.51;50.79
21817;BME280;13247;47.504;7.382;2023-07-31T14:14:35;96938.03;;;27.41;47.82
21817;BME280;13247;47.504;7.382;2023-07-31T14:17:20;96941.16;;;27.03;49.60
21817;BME280;13247;47.504;7.382;2023-07-31T14:20:05;96940.31;;;27.02;52.60
21817;BME280;13247;47.504;7.382;2023-07-31T14:22:51;96937.63;;;27.02;52.61
21817;BME280;13247;47.504;7.382;2023-07-31T14:25:35;96932.88;;;26.96;53.78
21817;BME280;13247;47.504;7.382;2023-07-31T14:28:20;96936.47;;;26.79;50.02
21817;BME280;13247;47.504;7.382;2023-07-31T14:31:05;96927.53;;;26.61;52.53
21817;BME280;13247;47.504;7.382;2023-07-31T14:33:49;96925.13;;;26.50;52.35
21817;BME280;13247;47.504;7.382;2023-07-31T14:36:34;96921.97;;;26.37;52.83
21817;BME280;13247;47.504;7.382;2023-07-31T14:39:19;96919.63;;;26.60;52.54